createdAt,value
2022-08-09T00:01:16.443Z,60.30
2022-08-09T00:04:05.900Z,60.40
2022-08-09T00:06:44.297Z,60.60
2022-08-09T00:09:18.045Z,60.60
2022-08-09T00:11:58.670Z,60.70
2022-08-09T00:14:37.895Z,60.80
2022-08-09T00:17:08.767Z,60.90
2022-08-09T00:20:04.369Z,61.20
2022-08-09T00:22:35.228Z,61.10
2022-08-09T00:25:08.554Z,61.30
2022-08-09T00:27:43.098Z,61.40
2022-08-09T00:30:26.051Z,61.50
2022-08-09T00:33:04.623Z,61.60
2022-08-09T00:35:44.740Z,61.60
2022-08-09T00:38:16.319Z,61.60
2022-08-09T00:40:53.234Z,61.70
2022-08-09T00:44:10.157Z,61.70
2022-08-09T00:46:45.324Z,61.90
2022-08-09T00:49:03.990Z,61.90
2022-08-09T00:51:44.124Z,62.00
2022-08-09T00:54:36.319Z,62.10
2022-08-09T00:57:12.443Z,62.30
2022-08-09T00:59:52.519Z,62.30
2022-08-09T01:02:27.292Z,62.50
2022-08-09T01:05:53.830Z,62.60
2022-08-09T01:08:51.651Z,62.70
2022-08-09T01:11:41.791Z,62.80
2022-08-09T01:14:41.867Z,62.90
2022-08-09T01:17:22.929Z,62.80
2022-08-09T01:20:13.823Z,63.10
2022-08-09T01:24:03.466Z,63.10
2022-08-09T01:26:32.252Z,63.20
2022-08-09T01:29:11.917Z,63.30
2022-08-09T01:32:32.179Z,63.30
2022-08-09T01:34:44.194Z,63.30
2022-08-09T01:37:15.673Z,63.50
2022-08-09T01:39:55.642Z,63.60
2022-08-09T01:42:33.420Z,63.80
2022-08-09T01:45:07.428Z,63.90
2022-08-09T01:47:44.761Z,64.00
2022-08-09T01:50:17.142Z,64.00
2022-08-09T01:52:45.537Z,64.10
2022-08-09T01:55:24.099Z,64.30
2022-08-09T01:58:15.922Z,64.40
2022-08-09T02:00:50.444Z,64.50
2022-08-09T02:03:22.436Z,64.40
2022-08-09T02:06:04.167Z,64.60
2022-08-09T02:08:58.889Z,64.70
2022-08-09T02:11:42.140Z,64.90
2022-08-09T02:14:26.241Z,64.90
2022-08-09T02:17:15.270Z,64.90
2022-08-09T02:19:47.651Z,65.00
2022-08-09T02:22:45.786Z,65.10
2022-08-09T02:25:23.983Z,65.20
2022-08-09T02:28:10.694Z,65.20
2022-08-09T02:30:54.256Z,65.20
2022-08-09T02:33:38.408Z,65.40
2022-08-09T02:36:32.796Z,65.40
2022-08-09T02:39:06.442Z,65.50
2022-08-09T02:41:42.249Z,65.60
2022-08-09T02:44:29.040Z,65.70
2022-08-09T02:47:01.450Z,65.70
2022-08-09T02:49:38.558Z,65.70
2022-08-09T02:52:14.847Z,65.80
2022-08-09T02:54:53.870Z,65.80
2022-08-09T02:57:28.595Z,65.80
2022-08-09T03:00:20.933Z,66.00
2022-08-09T03:02:58.198Z,66.10
2022-08-09T03:05:34.999Z,66.20
2022-08-09T03:08:05.951Z,66.20
2022-08-09T03:10:36.737Z,66.20
2022-08-09T03:13:13.810Z,66.40
2022-08-09T03:16:06.234Z,66.50
2022-08-09T03:18:32.555Z,66.50
2022-08-09T03:21:04.673Z,66.50
2022-08-09T03:23:35.652Z,66.50
2022-08-09T03:26:05.184Z,66.50
2022-08-09T03:28:36.160Z,66.60
2022-08-09T03:31:20.977Z,66.70
2022-08-09T03:33:54.915Z,66.60
2022-08-09T03:36:27.343Z,66.70
2022-08-09T03:38:58.473Z,66.70
2022-08-09T03:41:29.979Z,66.70
2022-08-09T03:44:16.483Z,66.80
2022-08-09T03:46:49.215Z,66.80
2022-08-09T03:49:24.047Z,67.00
2022-08-09T03:52:03.787Z,67.10
2022-08-09T03:54:46.574Z,67.10
2022-08-09T03:57:32.794Z,67.10
2022-08-09T04:00:15.142Z,67.10
2022-08-09T04:02:45.502Z,67.20
2022-08-09T04:05:33.542Z,67.30
2022-08-09T04:08:08.280Z,67.40
2022-08-09T04:10:36.202Z,67.50
2022-08-09T04:14:36.615Z,67.50
2022-08-09T04:16:19.592Z,67.50
2022-08-09T04:18:50.974Z,67.50
2022-08-09T04:21:26.577Z,67.50
2022-08-09T04:24:04.293Z,67.50
2022-08-09T04:26:35.069Z,67.50
2022-08-09T04:29:13.491Z,67.50
2022-08-09T04:31:47.642Z,67.60
2022-08-09T04:34:18.989Z,67.70
2022-08-09T04:37:03.344Z,67.70
2022-08-09T04:39:32.074Z,67.70
2022-08-09T04:42:09.594Z,67.70
2022-08-09T04:44:40.580Z,67.80
2022-08-09T04:47:19.022Z,67.90
2022-08-09T04:49:54.362Z,67.90
2022-08-09T04:52:28.377Z,67.90
2022-08-09T04:54:59.621Z,68.00
2022-08-09T04:57:54.176Z,67.90
2022-08-09T05:00:18.175Z,67.90
2022-08-09T05:02:52.640Z,68.10
2022-08-09T05:05:31.810Z,68.20
2022-08-09T05:08:08.941Z,68.20
2022-08-09T05:10:36.638Z,68.20
2022-08-09T05:13:04.847Z,68.30
2022-08-09T05:15:38.516Z,68.30
2022-08-09T05:18:38.288Z,68.30
2022-08-09T05:20:59.748Z,68.30
2022-08-09T05:23:54.183Z,68.30
2022-08-09T05:26:22.363Z,68.40
2022-08-09T05:29:02.267Z,68.50
2022-08-09T05:31:44.223Z,68.40
2022-08-09T05:34:17.593Z,68.50
2022-08-09T05:36:48.255Z,68.50
2022-08-09T05:39:28.804Z,68.60
2022-08-09T05:42:01.482Z,68.60
2022-08-09T05:44:34.587Z,68.60
2022-08-09T05:47:05.152Z,68.50
2022-08-09T05:50:31.295Z,68.60
2022-08-09T05:52:24.782Z,68.60
2022-08-09T05:54:55.305Z,68.50
2022-08-09T05:57:25.035Z,68.60
2022-08-09T06:00:10.743Z,68.70
2022-08-09T06:02:46.798Z,68.60
2022-08-09T06:05:18.188Z,68.60
2022-08-09T06:08:07.808Z,68.60
2022-08-09T06:10:38.722Z,68.40
2022-08-09T06:13:20.201Z,68.20
2022-08-09T06:15:52.278Z,68.00
2022-08-09T06:18:24.938Z,67.70
2022-08-09T06:20:58.478Z,67.30
2022-08-09T06:23:57.183Z,66.90
2022-08-09T06:26:22.185Z,66.50
2022-08-09T06:28:59.292Z,66.40
2022-08-09T06:31:31.477Z,66.10
2022-08-09T06:34:07.910Z,65.70
2022-08-09T06:36:37.668Z,65.50
2022-08-09T06:39:12.711Z,65.40
2022-08-09T06:42:08.200Z,65.10
2022-08-09T06:44:31.009Z,64.90
2022-08-09T06:46:58.317Z,64.70
2022-08-09T06:49:44.541Z,64.40
2022-08-09T06:52:16.003Z,64.20
2022-08-09T06:54:43.671Z,64.00
2022-08-09T06:57:12.162Z,63.80
2022-08-09T07:00:51.955Z,63.70
2022-08-09T07:02:29.185Z,63.60
2022-08-09T07:04:58.050Z,63.40
2022-08-09T07:08:00.650Z,63.20
2022-08-09T07:10:29.472Z,63.00
2022-08-09T07:12:59.722Z,62.80
2022-08-09T07:16:36.370Z,62.80
2022-08-09T07:18:17.721Z,62.70
2022-08-09T07:20:44.658Z,62.50
2022-08-09T07:23:19.416Z,62.30
2022-08-09T07:25:52.224Z,61.90
2022-08-09T07:28:28.077Z,61.60
2022-08-09T07:30:55.956Z,61.00
2022-08-09T07:33:23.379Z,60.80
2022-08-09T07:35:54.685Z,60.70
2022-08-09T07:38:23.147Z,60.50
2022-08-09T07:41:10.013Z,60.40
2022-08-09T07:43:55.882Z,60.10
2022-08-09T07:46:25.313Z,59.90
2022-08-09T07:48:59.408Z,59.10
2022-08-09T07:52:05.358Z,58.50
2022-08-09T07:54:19.241Z,58.40
2022-08-09T07:57:05.723Z,58.00
2022-08-09T07:59:52.302Z,57.30
2022-08-09T08:02:26.467Z,56.50
2022-08-09T08:04:56.348Z,56.30
2022-08-09T08:08:42.801Z,55.90
2022-08-09T08:10:11.362Z,55.70
2022-08-09T08:12:43.802Z,55.30
2022-08-09T08:15:17.605Z,54.40
2022-08-09T08:17:53.460Z,54.20
2022-08-09T08:20:28.759Z,53.60
2022-08-09T08:23:01.402Z,53.10
2022-08-09T08:25:44.668Z,53.40
2022-08-09T08:28:14.990Z,53.20
2022-08-09T08:30:44.046Z,52.50
2022-08-09T08:33:11.927Z,52.30
2022-08-09T08:35:58.268Z,52.00
2022-08-09T08:38:26.063Z,51.40
2022-08-09T08:40:56.745Z,50.60
2022-08-09T08:43:25.703Z,50.00
2022-08-09T08:46:03.815Z,50.00
2022-08-09T08:48:37.128Z,49.70
2022-08-09T08:51:05.020Z,49.40
2022-08-09T08:53:37.215Z,48.60
2022-08-09T08:56:06.097Z,48.00
2022-08-09T08:58:33.436Z,47.70
2022-08-09T09:01:08.966Z,47.10
2022-08-09T09:03:50.616Z,47.20
2022-08-09T09:06:19.519Z,47.20
2022-08-09T09:08:52.473Z,47.20
2022-08-09T09:11:20.843Z,46.70
2022-08-09T09:13:57.146Z,46.50
2022-08-09T09:16:30.757Z,46.10
2022-08-09T09:19:22.537Z,45.50
2022-08-09T09:22:11.699Z,45.20
2022-08-09T09:26:03.920Z,44.60
2022-08-09T09:28:06.930Z,44.50
2022-08-09T09:30:41.221Z,44.40
2022-08-09T09:33:15.734Z,44.50
2022-08-09T09:36:01.470Z,44.20
2022-08-09T09:38:43.743Z,43.90
2022-08-09T09:41:48.843Z,43.50
2022-08-09T09:44:31.498Z,43.70
2022-08-09T09:47:16.650Z,43.30
2022-08-09T09:50:13.768Z,43.00
2022-08-09T09:52:56.349Z,42.70
2022-08-09T09:55:32.557Z,42.50
2022-08-09T09:58:16.922Z,42.30
2022-08-09T10:00:50.327Z,42.10
2022-08-09T10:03:56.180Z,42.10
2022-08-09T10:06:24.787Z,41.90
2022-08-09T10:08:58.531Z,42.00
2022-08-09T10:12:00.496Z,41.60
2022-08-09T10:14:47.781Z,41.80
2022-08-09T10:17:50.197Z,41.70
2022-08-09T10:20:27.409Z,41.20
2022-08-09T10:23:19.880Z,41.20
2022-08-09T10:26:07.712Z,40.90
2022-08-09T10:28:35.570Z,41.20
2022-08-09T10:34:09.710Z,40.90
2022-08-09T10:36:38.485Z,41.00
2022-08-09T10:39:15.768Z,41.00
2022-08-09T10:41:46.065Z,40.80
2022-08-09T10:44:17.934Z,40.60
2022-08-09T10:46:55.070Z,40.50
2022-08-09T10:49:42.330Z,40.60
2022-08-09T10:52:44.818Z,40.50
2022-08-09T10:55:26.099Z,40.30
2022-08-09T10:57:56.039Z,40.50
2022-08-09T11:00:34.382Z,40.50
2022-08-09T11:03:27.225Z,40.50
2022-08-09T11:06:16.004Z,40.60
2022-08-09T11:08:47.605Z,40.50
2022-08-09T11:11:19.053Z,40.40
2022-08-09T11:13:53.744Z,40.40
2022-08-09T11:16:39.028Z,40.40
2022-08-09T11:19:10.073Z,40.30
2022-08-09T11:22:10.191Z,40.30
2022-08-09T11:25:08.184Z,40.20
2022-08-09T11:28:04.488Z,40.30
2022-08-09T11:30:32.817Z,40.10
2022-08-09T11:33:10.500Z,40.20
2022-08-09T11:35:50.211Z,39.90
2022-08-09T11:38:32.404Z,39.70
2022-08-09T11:41:38.475Z,39.60
2022-08-09T11:44:08.412Z,39.70
2022-08-09T11:46:54.583Z,39.70
2022-08-09T11:50:54.378Z,39.30
2022-08-09T11:53:15.783Z,39.30
2022-08-09T11:55:53.228Z,39.30
2022-08-09T11:58:32.595Z,39.20
2022-08-09T12:01:08.323Z,39.00
2022-08-09T12:03:57.369Z,38.90
2022-08-09T12:06:32.346Z,39.00
2022-08-09T12:09:03.644Z,38.80
2022-08-09T12:12:02.475Z,38.60
2022-08-09T12:14:36.759Z,38.70
2022-08-09T12:17:23.330Z,38.70
2022-08-09T12:19:59.364Z,38.70
2022-08-09T12:22:27.940Z,38.50
2022-08-09T12:25:31.847Z,38.30
2022-08-09T12:29:12.462Z,38.10
2022-08-09T12:31:10.846Z,37.90
2022-08-09T12:33:58.688Z,37.80
2022-08-09T12:36:31.950Z,37.60
2022-08-09T12:39:00.906Z,37.40
2022-08-09T12:41:39.301Z,37.10
2022-08-09T12:44:12.930Z,36.70
2022-08-09T12:46:48.909Z,36.90
2022-08-09T12:49:18.172Z,37.10
2022-08-09T12:52:02.695Z,36.80
2022-08-09T12:56:11.502Z,36.40
2022-08-09T12:57:42.011Z,36.50
2022-08-09T13:00:17.388Z,36.60
2022-08-09T13:02:57.187Z,36.60
2022-08-09T13:05:27.241Z,36.10
2022-08-09T13:08:39.850Z,36.10
2022-08-09T13:11:13.405Z,35.80
2022-08-09T13:14:37.898Z,35.80
2022-08-09T13:16:53.829Z,36.00
2022-08-09T13:20:06.739Z,36.10
2022-08-09T13:22:35.376Z,35.60
2022-08-09T13:25:07.572Z,35.50
2022-08-09T13:27:48.363Z,35.50
2022-08-09T13:30:51.176Z,35.30
2022-08-09T13:33:20.981Z,35.20
2022-08-09T13:36:41.839Z,35.20
2022-08-09T13:38:55.500Z,35.20
2022-08-09T13:41:59.395Z,35.10
2022-08-09T13:44:13.641Z,34.90
2022-08-09T13:47:27.537Z,34.70
2022-08-09T13:49:37.725Z,34.50
2022-08-09T13:52:09.183Z,34.70
2022-08-09T13:54:42.834Z,34.70
2022-08-09T13:57:35.049Z,34.50
2022-08-09T13:59:58.195Z,34.10
2022-08-09T14:02:26.229Z,34.00
2022-08-09T14:05:00.065Z,33.70
2022-08-09T14:07:40.881Z,33.80
2022-08-09T14:10:17.022Z,33.20
2022-08-09T14:12:44.636Z,33.20
2022-08-09T14:16:06.647Z,33.40
2022-08-09T14:18:18.895Z,33.50
2022-08-09T14:20:46.269Z,33.60
2022-08-09T14:23:20.378Z,33.20
2022-08-09T14:26:05.925Z,33.20
2022-08-09T14:28:33.382Z,32.90
2022-08-09T14:31:00.231Z,32.90
2022-08-09T14:33:27.755Z,33.10
2022-08-09T14:35:55.988Z,33.20
2022-08-09T14:38:22.746Z,33.20
2022-08-09T14:41:02.068Z,33.40
2022-08-09T14:43:47.565Z,33.70
2022-08-09T14:46:54.700Z,34.10
2022-08-09T14:49:03.029Z,34.40
2022-08-09T14:51:30.397Z,34.40
2022-08-09T14:54:09.571Z,34.50
2022-08-09T14:56:57.637Z,34.60
2022-08-09T14:59:23.585Z,35.00
2022-08-09T15:01:50.711Z,35.50
2022-08-09T15:04:18.613Z,35.70
2022-08-09T15:06:49.398Z,35.90
2022-08-09T15:09:30.418Z,36.10
2022-08-09T15:12:04.977Z,36.00
2022-08-09T15:14:38.741Z,35.90
2022-08-09T15:17:09.800Z,35.90
2022-08-09T15:19:59.648Z,36.20
2022-08-09T15:22:30.221Z,36.50
2022-08-09T15:24:59.935Z,36.80
2022-08-09T15:27:47.419Z,37.10
2022-08-09T15:30:48.740Z,37.00
2022-08-09T15:33:07.401Z,36.80
2022-08-09T15:35:44.084Z,36.80
2022-08-09T15:38:12.312Z,36.90
2022-08-09T15:40:43.460Z,37.10
2022-08-09T15:43:13.204Z,37.50
2022-08-09T15:46:07.903Z,37.90
2022-08-09T15:48:30.848Z,38.10
2022-08-09T15:51:00.196Z,38.40
2022-08-09T15:54:03.446Z,38.50
2022-08-09T15:56:28.596Z,38.40
2022-08-09T15:58:57.834Z,38.60
2022-08-09T16:01:24.850Z,38.50
2022-08-09T16:03:52.497Z,38.30
2022-08-09T16:06:34.892Z,38.40
2022-08-09T16:09:05.129Z,38.50
2022-08-09T16:11:33.082Z,38.60
2022-08-09T16:14:06.917Z,38.80
2022-08-09T16:16:41.807Z,38.70
2022-08-09T16:19:13.787Z,38.70
2022-08-09T16:21:42.779Z,38.90
2022-08-09T16:24:20.110Z,38.80
2022-08-09T16:26:59.831Z,38.50
2022-08-09T16:29:36.946Z,38.50
2022-08-09T16:32:18.111Z,38.20
2022-08-09T16:34:54.646Z,38.20
2022-08-09T16:37:53.130Z,38.00
2022-08-09T16:40:12.639Z,37.60
2022-08-09T16:42:44.982Z,37.40
2022-08-09T16:45:19.152Z,37.30
2022-08-09T16:48:38.021Z,37.10
2022-08-09T16:50:34.835Z,37.00
2022-08-09T16:53:05.872Z,36.80
2022-08-09T16:55:57.821Z,36.60
2022-08-09T16:58:21.145Z,36.40
2022-08-09T17:00:49.635Z,36.00
2022-08-09T17:03:21.922Z,35.80
2022-08-09T17:06:08.775Z,35.60
2022-08-09T17:08:43.078Z,35.50
2022-08-09T17:11:24.355Z,35.30
2022-08-09T17:14:01.575Z,35.00
2022-08-09T17:16:29.346Z,34.40
2022-08-09T17:18:56.631Z,34.00
2022-08-09T17:21:25.251Z,34.00
2022-08-09T17:24:28.424Z,34.00
2022-08-09T17:26:43.285Z,34.30
2022-08-09T17:29:20.381Z,34.30
2022-08-09T17:31:49.188Z,34.00
2022-08-09T17:35:00.424Z,34.00
2022-08-09T17:37:04.138Z,33.60
2022-08-09T17:39:52.625Z,33.30
2022-08-09T17:42:41.037Z,33.10
2022-08-09T17:45:06.452Z,32.90
2022-08-09T17:47:49.066Z,32.20
2022-08-09T17:50:36.167Z,32.00
2022-08-09T17:53:04.648Z,32.30
2022-08-09T17:55:49.206Z,33.10
2022-08-09T17:58:18.985Z,34.10
2022-08-09T18:00:47.922Z,35.10
2022-08-09T18:03:15.438Z,36.00
2022-08-09T18:05:45.277Z,37.00
2022-08-09T18:08:22.291Z,37.70
2022-08-09T18:11:00.791Z,38.20
2022-08-09T18:13:43.254Z,38.60
2022-08-09T18:16:17.224Z,39.20
2022-08-09T18:18:57.019Z,39.70
2022-08-09T18:21:24.657Z,40.30
2022-08-09T18:24:10.300Z,40.80
2022-08-09T18:26:46.205Z,41.20
2022-08-09T18:30:35.368Z,41.50
2022-08-09T18:32:05.317Z,41.90
2022-08-09T18:34:35.469Z,42.40
2022-08-09T18:37:10.334Z,42.70
2022-08-09T18:39:57.524Z,43.10
2022-08-09T18:42:29.137Z,43.30
2022-08-09T18:45:00.892Z,43.60
2022-08-09T18:47:37.337Z,43.80
2022-08-09T18:50:09.929Z,44.00
2022-08-09T18:52:37.778Z,44.30
2022-08-09T18:55:13.641Z,44.50
2022-08-09T18:57:44.647Z,44.70
2022-08-09T19:00:19.115Z,44.90
2022-08-09T19:02:51.318Z,45.10
2022-08-09T19:05:48.987Z,45.40
2022-08-09T19:08:11.891Z,45.70
2022-08-09T19:10:41.749Z,46.00
2022-08-09T19:13:22.667Z,46.20
2022-08-09T19:15:56.306Z,46.40
2022-08-09T19:18:33.524Z,46.50
2022-08-09T19:21:09.270Z,46.60
2022-08-09T19:24:32.871Z,46.80
2022-08-09T19:26:31.617Z,47.00
2022-08-09T19:29:09.685Z,47.20
2022-08-09T19:31:49.293Z,47.40
2022-08-09T19:34:21.938Z,47.50
2022-08-09T19:36:55.734Z,47.60
2022-08-09T19:40:02.701Z,47.90
2022-08-09T19:42:29.325Z,48.10
2022-08-09T19:44:56.589Z,48.30
2022-08-09T19:47:27.054Z,48.50
2022-08-09T19:50:05.136Z,48.60
2022-08-09T19:52:37.735Z,48.70
2022-08-09T19:55:19.501Z,48.80
2022-08-09T19:57:56.288Z,48.90
2022-08-09T20:00:24.044Z,49.00
2022-08-09T20:04:18.421Z,49.10
2022-08-09T20:05:46.306Z,49.20
2022-08-09T20:08:16.160Z,49.30
2022-08-09T20:10:53.399Z,49.40
2022-08-09T20:13:23.034Z,49.50
2022-08-09T20:16:35.606Z,49.60
2022-08-09T20:18:37.726Z,49.70
2022-08-09T20:21:40.854Z,49.80
2022-08-09T20:24:12.637Z,49.90
2022-08-09T20:26:57.197Z,49.90
2022-08-09T20:29:28.746Z,50.10
2022-08-09T20:32:29.948Z,50.20
2022-08-09T20:34:54.315Z,50.30
2022-08-09T20:37:22.615Z,50.40
2022-08-09T20:40:16.272Z,50.50
2022-08-09T20:42:40.655Z,50.60
2022-08-09T20:46:01.975Z,50.80
2022-08-09T20:48:08.109Z,50.80
2022-08-09T20:50:47.133Z,51.00
2022-08-09T20:53:18.611Z,51.10
2022-08-09T20:56:06.566Z,51.10
2022-08-09T20:58:36.438Z,51.10
2022-08-09T21:01:33.412Z,51.20
2022-08-09T21:05:49.145Z,51.30
2022-08-09T21:06:44.209Z,51.30
2022-08-09T21:09:13.922Z,51.40
2022-08-09T21:14:33.834Z,51.60
2022-08-09T21:18:21.119Z,51.50
2022-08-09T21:20:18.551Z,51.60
2022-08-09T21:22:42.018Z,51.80
2022-08-09T21:25:38.248Z,51.90
2022-08-09T21:28:07.384Z,52.00
2022-08-09T21:30:41.565Z,52.10
2022-08-09T21:33:09.370Z,52.10
2022-08-09T21:35:40.621Z,52.20
2022-08-09T21:38:11.391Z,52.10
2022-08-09T21:40:40.802Z,52.20
2022-08-09T21:43:09.491Z,52.20
2022-08-09T21:45:38.821Z,52.20
2022-08-09T21:48:07.803Z,52.40
2022-08-09T21:50:39.240Z,52.40
2022-08-09T21:53:24.038Z,52.50
2022-08-09T21:56:06.916Z,52.50
2022-08-09T21:58:55.019Z,52.60
2022-08-09T22:01:26.412Z,52.60
2022-08-09T22:04:10.069Z,52.70
2022-08-09T22:06:37.444Z,52.70
2022-08-09T22:09:05.678Z,52.80
2022-08-09T22:12:06.574Z,52.90
2022-08-09T22:14:29.748Z,52.90
2022-08-09T22:16:59.762Z,53.00
2022-08-09T22:19:59.707Z,53.00
2022-08-09T22:22:18.495Z,53.10
2022-08-09T22:25:10.536Z,53.10
2022-08-09T22:27:36.252Z,53.10
2022-08-09T22:30:04.994Z,53.10
2022-08-09T22:32:33.233Z,53.10
2022-08-09T22:35:06.272Z,53.20
2022-08-09T22:37:40.601Z,53.20
2022-08-09T22:40:10.583Z,53.20
2022-08-09T22:42:47.740Z,53.20
2022-08-09T22:48:11.471Z,53.30
2022-08-09T22:48:13.802Z,53.20
2022-08-09T22:50:53.857Z,53.30
2022-08-09T22:53:21.696Z,53.40
2022-08-09T22:56:29.455Z,53.30
2022-08-09T22:58:37.552Z,53.40
2022-08-09T23:01:06.192Z,53.50
2022-08-09T23:04:03.465Z,53.70
2022-08-09T23:06:49.278Z,53.70
2022-08-09T23:09:16.682Z,53.80
2022-08-09T23:11:44.142Z,53.90
2022-08-09T23:14:17.187Z,54.00
2022-08-09T23:16:44.847Z,54.10
2022-08-09T23:19:11.929Z,54.10
2022-08-09T23:21:39.762Z,54.20
2022-08-09T23:24:07.609Z,54.20
2022-08-09T23:26:39.006Z,54.40
2022-08-09T23:29:13.536Z,54.50
2022-08-09T23:31:41.569Z,54.50
2022-08-09T23:34:09.365Z,54.70
2022-08-09T23:36:36.991Z,54.80
2022-08-09T23:39:05.570Z,54.90
2022-08-09T23:41:35.521Z,54.90
2022-08-09T23:44:06.129Z,54.90
2022-08-09T23:46:36.347Z,55.00
2022-08-09T23:49:03.551Z,55.00
2022-08-09T23:51:31.134Z,55.10
2022-08-09T23:54:02.873Z,55.10
2022-08-09T23:56:52.991Z,55.20
2022-08-09T23:59:20.723Z,55.20
